createdAt,value
2019-01-25T00:00:32.445Z,29.53
2019-01-25T00:03:09.840Z,29.57
2019-01-25T00:05:35.690Z,30.00
2019-01-25T00:08:06.991Z,29.63
2019-01-25T00:10:37.779Z,30.23
2019-01-25T00:13:09.314Z,30.50
2019-01-25T00:15:41.713Z,30.17
2019-01-25T00:18:12.522Z,27.90
2019-01-25T00:20:43.301Z,29.83
2019-01-25T00:23:14.349Z,30.87
2019-01-25T00:25:45.052Z,28.53
2019-01-25T00:28:15.788Z,28.27
2019-01-25T00:30:47.073Z,29.73
2019-01-25T00:33:17.770Z,28.30
2019-01-25T00:35:48.553Z,29.70
2019-01-25T00:38:19.246Z,30.37
2019-01-25T00:40:49.989Z,29.83
2019-01-25T00:43:20.748Z,28.83
2019-01-25T00:45:51.504Z,30.27
2019-01-25T00:48:22.234Z,29.80
2019-01-25T00:50:52.970Z,28.70
2019-01-25T00:53:23.708Z,29.17
2019-01-25T00:55:54.526Z,28.77
2019-01-25T00:58:25.336Z,27.17
2019-01-25T01:00:56.127Z,27.87
2019-01-25T01:03:26.863Z,28.30
2019-01-25T01:05:57.620Z,27.67
2019-01-25T01:08:28.486Z,27.37
2019-01-25T01:10:59.246Z,27.13
2019-01-25T01:13:30.036Z,26.57
2019-01-25T01:16:00.773Z,27.90
2019-01-25T01:18:31.801Z,26.27
2019-01-25T01:21:02.581Z,28.50
2019-01-25T01:23:33.671Z,27.93
2019-01-25T01:26:04.534Z,29.00
2019-01-25T01:28:36.080Z,26.67
2019-01-25T01:31:07.618Z,26.17
2019-01-25T01:33:39.287Z,27.57
2019-01-25T01:36:10.131Z,27.30
2019-01-25T01:38:41.274Z,28.63
2019-01-25T01:41:11.961Z,28.70
2019-01-25T01:43:42.741Z,29.40
2019-01-25T01:46:13.674Z,28.20
2019-01-25T01:48:45.177Z,29.53
2019-01-25T01:51:16.304Z,28.37
2019-01-25T01:53:46.965Z,29.07
2019-01-25T01:56:17.705Z,30.33
2019-01-25T01:58:48.406Z,29.97
2019-01-25T02:01:20.925Z,30.67
2019-01-25T02:03:51.566Z,29.03
2019-01-25T02:06:22.324Z,30.47
2019-01-25T02:08:53.002Z,29.20
2019-01-25T02:11:23.738Z,30.30
2019-01-25T02:13:54.432Z,29.93
2019-01-25T02:16:25.126Z,32.20
2019-01-25T02:18:55.817Z,32.33
2019-01-25T02:21:26.569Z,31.97
2019-01-25T02:23:57.251Z,31.33
2019-01-25T02:26:27.918Z,32.27
2019-01-25T02:28:58.734Z,30.33
2019-01-25T02:31:29.419Z,34.13
2019-01-25T02:34:00.722Z,32.47
2019-01-25T02:36:31.487Z,32.93
2019-01-25T02:39:02.382Z,31.67
2019-01-25T02:41:33.228Z,34.40
2019-01-25T02:44:03.988Z,33.37
2019-01-25T02:46:34.787Z,34.50
2019-01-25T02:49:05.886Z,35.37
2019-01-25T02:51:37.385Z,33.87
2019-01-25T02:54:08.105Z,34.83
2019-01-25T02:56:39.506Z,32.70
2019-01-25T02:59:10.205Z,33.07
2019-01-25T03:01:41.167Z,31.83
2019-01-25T03:04:12.227Z,31.60
2019-01-25T03:06:46.367Z,33.43
2019-01-25T03:09:17.146Z,31.87
2019-01-25T03:11:47.896Z,31.23
2019-01-25T03:14:18.592Z,33.57
2019-01-25T03:16:49.312Z,33.03
2019-01-25T03:19:19.979Z,33.50
2019-01-25T03:21:50.732Z,33.33
2019-01-25T03:24:21.413Z,35.33
2019-01-25T03:26:52.241Z,33.73
2019-01-25T03:29:22.925Z,34.67
2019-01-25T03:31:53.654Z,34.30
2019-01-25T03:34:24.409Z,31.73
2019-01-25T03:36:55.210Z,34.07
2019-01-25T03:39:25.890Z,33.33
2019-01-25T03:41:56.641Z,33.87
2019-01-25T03:44:27.322Z,32.80
2019-01-25T03:46:58.004Z,33.37
2019-01-25T03:49:28.679Z,33.27
2019-01-25T03:51:59.402Z,33.27
2019-01-25T03:54:30.087Z,33.43
2019-01-25T03:57:00.862Z,31.87
2019-01-25T03:59:31.626Z,32.07
2019-01-25T04:02:02.338Z,32.73
2019-01-25T04:04:33.070Z,34.47
2019-01-25T04:07:03.787Z,35.20
2019-01-25T04:09:34.688Z,33.20
2019-01-25T04:12:05.888Z,35.07
2019-01-25T04:14:36.676Z,33.67
2019-01-25T04:17:07.486Z,34.00
2019-01-25T04:19:47.504Z,32.70
2019-01-25T04:22:18.276Z,32.67
2019-01-25T04:24:49.434Z,31.90
2019-01-25T04:27:20.090Z,32.13
2019-01-25T04:29:50.931Z,32.83
2019-01-25T04:32:21.561Z,32.87
2019-01-25T04:34:52.483Z,33.83
2019-01-25T04:37:23.277Z,32.30
2019-01-25T04:39:54.053Z,33.23
2019-01-25T04:42:24.716Z,31.47
2019-01-25T04:44:55.414Z,33.33
2019-01-25T04:47:30.713Z,31.70
2019-01-25T04:50:01.439Z,30.60
2019-01-25T04:52:32.144Z,31.60
2019-01-25T04:55:28.562Z,32.87
2019-01-25T04:58:13.181Z,32.53
2019-01-25T05:00:44.904Z,33.57
2019-01-25T05:03:17.404Z,34.33
2019-01-25T05:05:48.605Z,31.40
2019-01-25T05:08:21.524Z,33.53
2019-01-25T05:10:52.618Z,33.90
2019-01-25T05:13:23.384Z,34.27
2019-01-25T05:15:54.067Z,35.00
2019-01-25T05:18:24.748Z,32.93
2019-01-25T05:20:55.441Z,33.80
2019-01-25T05:23:26.138Z,33.60
2019-01-25T05:25:56.855Z,33.33
2019-01-25T05:28:27.619Z,34.67
2019-01-25T05:31:07.494Z,33.00
2019-01-25T05:33:38.898Z,33.53
2019-01-25T05:36:09.608Z,31.73
2019-01-25T05:38:47.280Z,32.03
2019-01-25T05:41:17.910Z,32.27
2019-01-25T05:43:49.404Z,34.47
2019-01-25T05:46:20.100Z,32.93
2019-01-25T05:48:50.853Z,34.03
2019-01-25T05:51:22.349Z,35.90
2019-01-25T05:53:54.354Z,35.13
2019-01-25T05:56:30.261Z,32.47
2019-01-25T05:59:01.039Z,33.47
2019-01-25T06:01:31.828Z,34.00
2019-01-25T06:04:02.549Z,35.97
2019-01-25T06:06:33.240Z,33.83
2019-01-25T06:09:05.042Z,30.73
2019-01-25T06:11:38.143Z,31.70
2019-01-25T06:14:10.440Z,31.93
2019-01-25T06:16:42.884Z,33.57
2019-01-25T06:19:16.089Z,32.50
2019-01-25T06:21:48.066Z,35.67
2019-01-25T06:24:18.810Z,30.67
2019-01-25T06:26:49.838Z,33.03
2019-01-25T06:29:20.919Z,31.77
2019-01-25T06:31:51.712Z,33.47
2019-01-25T06:34:22.528Z,32.77
2019-01-25T06:36:53.187Z,32.30
2019-01-25T06:39:33.543Z,31.20
2019-01-25T06:42:05.140Z,33.50
2019-01-25T06:44:36.091Z,34.80
2019-01-25T06:47:06.846Z,35.40
2019-01-25T06:49:37.625Z,33.27
2019-01-25T06:52:11.563Z,34.27
2019-01-25T06:54:44.836Z,34.73
2019-01-25T06:57:26.664Z,36.40
2019-01-25T06:59:57.373Z,36.20
2019-01-25T07:02:32.643Z,32.83
2019-01-25T07:05:03.468Z,36.47
2019-01-25T07:07:37.032Z,34.03
2019-01-25T07:10:13.776Z,32.70
2019-01-25T07:12:46.778Z,33.03
2019-01-25T07:15:21.083Z,33.23
2019-01-25T07:17:52.781Z,33.47
2019-01-25T07:20:23.504Z,34.53
2019-01-25T07:22:54.831Z,33.27
2019-01-25T07:25:25.530Z,32.97
2019-01-25T07:27:56.426Z,31.30
2019-01-25T07:30:27.390Z,31.07
2019-01-25T07:32:58.158Z,32.60
2019-01-25T07:35:28.862Z,31.07
2019-01-25T07:38:00.004Z,33.47
2019-01-25T07:40:30.793Z,34.20
2019-01-25T07:43:01.653Z,31.43
2019-01-25T07:45:32.517Z,31.37
2019-01-25T07:48:03.463Z,34.27
2019-01-25T07:50:34.203Z,30.40
2019-01-25T07:53:05.069Z,33.13
2019-01-25T07:55:35.768Z,31.73
2019-01-25T07:58:06.858Z,31.13
2019-01-25T08:00:37.810Z,33.53
2019-01-25T08:03:09.088Z,32.33
2019-01-25T08:05:39.968Z,31.20
2019-01-25T08:08:10.638Z,32.43
2019-01-25T08:10:41.358Z,32.43
2019-01-25T08:13:12.123Z,32.87
2019-01-25T08:15:43.467Z,32.87
2019-01-25T08:18:14.414Z,32.73
2019-01-25T08:20:45.234Z,31.17
2019-01-25T08:23:18.077Z,32.33
2019-01-25T08:25:49.201Z,33.47
2019-01-25T08:28:19.989Z,32.63
2019-01-25T08:30:51.557Z,34.30
2019-01-25T08:33:22.437Z,34.03
2019-01-25T08:35:53.543Z,33.27
2019-01-25T08:38:24.268Z,34.70
2019-01-25T08:40:55.239Z,34.77
2019-01-25T08:43:27.260Z,33.10
2019-01-25T08:45:58.081Z,32.20
2019-01-25T08:48:29.274Z,33.43
2019-01-25T08:51:01.264Z,32.47
2019-01-25T08:53:31.980Z,36.03
2019-01-25T08:56:02.679Z,36.33
2019-01-25T08:58:34.227Z,34.10
2019-01-25T09:01:07.036Z,35.47
2019-01-25T09:03:38.059Z,41.87
2019-01-25T09:06:08.734Z,51.80
2019-01-25T09:08:40.306Z,41.80
2019-01-25T09:11:11.062Z,39.17
2019-01-25T09:13:42.162Z,40.63
2019-01-25T09:16:12.909Z,38.93
2019-01-25T09:18:44.367Z,43.73
2019-01-25T09:21:15.254Z,36.17
2019-01-25T09:23:45.946Z,37.07
2019-01-25T09:26:16.775Z,37.10
2019-01-25T09:28:47.613Z,35.43
2019-01-25T09:31:18.708Z,35.23
2019-01-25T09:33:49.515Z,34.97
2019-01-25T09:36:20.261Z,34.00
2019-01-25T09:38:51.635Z,33.97
2019-01-25T09:41:22.597Z,35.87
2019-01-25T09:43:53.674Z,35.77
2019-01-25T09:46:24.401Z,33.77
2019-01-25T09:48:55.677Z,34.50
2019-01-25T09:51:26.539Z,32.00
2019-01-25T09:53:57.332Z,33.07
2019-01-25T09:56:28.292Z,34.10
2019-01-25T09:58:59.720Z,35.50
2019-01-25T10:01:30.412Z,33.77
2019-01-25T10:04:01.183Z,35.90
2019-01-25T10:06:32.042Z,35.67
2019-01-25T10:09:21.796Z,34.73
2019-01-25T10:11:53.611Z,33.60
2019-01-25T10:14:24.310Z,34.33
2019-01-25T10:16:56.491Z,32.70
2019-01-25T10:19:27.208Z,32.47
2019-01-25T10:21:57.987Z,34.63
2019-01-25T10:24:28.757Z,32.20
2019-01-25T10:27:05.521Z,33.60
2019-01-25T10:29:36.217Z,31.87
2019-01-25T10:32:08.260Z,33.20
2019-01-25T10:34:38.949Z,30.27
2019-01-25T10:37:10.000Z,30.13
2019-01-25T10:39:42.520Z,30.93
2019-01-25T10:42:13.340Z,29.73
2019-01-25T10:44:45.336Z,28.17
2019-01-25T10:47:16.068Z,30.33
2019-01-25T10:49:48.652Z,30.60
2019-01-25T10:52:19.439Z,29.03
2019-01-25T10:54:50.451Z,29.77
2019-01-25T10:57:22.101Z,28.60
2019-01-25T10:59:52.788Z,27.50
2019-01-25T11:02:23.464Z,28.40
2019-01-25T11:04:54.120Z,26.73
2019-01-25T11:07:24.825Z,28.00
2019-01-25T11:09:55.677Z,28.30
2019-01-25T11:12:26.420Z,28.43
2019-01-25T11:14:57.792Z,28.13
2019-01-25T11:17:28.428Z,27.80
2019-01-25T11:19:59.624Z,26.10
2019-01-25T11:22:30.447Z,26.83
2019-01-25T11:25:01.374Z,27.13
2019-01-25T11:27:32.024Z,27.53
2019-01-25T11:30:02.680Z,28.70
2019-01-25T11:32:33.344Z,27.27
2019-01-25T11:35:05.099Z,28.67
2019-01-25T11:37:35.880Z,28.23
2019-01-25T11:40:13.800Z,29.70
2019-01-25T11:42:48.143Z,30.53
2019-01-25T11:45:18.931Z,28.73
2019-01-25T11:47:50.073Z,29.90
2019-01-25T11:50:21.168Z,30.57
2019-01-25T11:52:52.006Z,29.07
2019-01-25T11:55:22.704Z,31.13
2019-01-25T11:57:53.398Z,29.40
2019-01-25T12:00:26.828Z,27.40
2019-01-25T12:02:58.060Z,27.67
2019-01-25T12:05:29.532Z,29.07
2019-01-25T12:08:01.056Z,29.77
2019-01-25T12:10:32.455Z,27.20
2019-01-25T12:13:03.819Z,28.47
2019-01-25T12:15:35.131Z,29.90
2019-01-25T12:18:07.325Z,27.80
2019-01-25T12:20:39.031Z,26.67
2019-01-25T12:23:10.188Z,27.07
2019-01-25T12:25:41.126Z,27.03
2019-01-25T12:28:12.097Z,26.37
2019-01-25T12:30:43.709Z,26.73
2019-01-25T12:33:16.980Z,27.90
2019-01-25T12:35:47.765Z,27.97
2019-01-25T12:38:21.873Z,29.57
2019-01-25T12:40:52.951Z,29.77
2019-01-25T12:43:24.438Z,30.03
2019-01-25T12:45:55.511Z,29.57
2019-01-25T12:48:26.803Z,31.57
2019-01-25T12:51:25.680Z,31.70
2019-01-25T12:53:56.714Z,30.20
2019-01-25T12:56:27.658Z,30.93
2019-01-25T12:58:58.788Z,31.63
2019-01-25T13:01:34.980Z,29.73
2019-01-25T13:04:04.919Z,29.20
2019-01-25T13:06:35.935Z,30.07
2019-01-25T13:09:14.786Z,32.90
2019-01-25T13:11:49.402Z,32.87
2019-01-25T13:14:20.485Z,36.07
2019-01-25T13:16:51.475Z,38.70
2019-01-25T13:19:22.522Z,43.03
2019-01-25T13:21:54.075Z,35.53
2019-01-25T13:24:25.292Z,32.77
2019-01-25T13:26:56.488Z,31.63
2019-01-25T13:29:33.377Z,33.53
2019-01-25T13:32:05.034Z,33.77
2019-01-25T13:34:43.452Z,31.97
2019-01-25T13:37:14.562Z,33.97
2019-01-25T13:39:45.884Z,33.47
2019-01-25T13:42:21.350Z,33.13
2019-01-25T13:44:52.437Z,34.20
2019-01-25T13:47:23.427Z,33.83
2019-01-25T13:49:54.602Z,33.30
2019-01-25T13:52:25.654Z,34.13
2019-01-25T13:55:03.251Z,34.83
2019-01-25T13:57:35.340Z,32.67
2019-01-25T14:00:28.177Z,33.33
2019-01-25T14:02:59.803Z,33.43
2019-01-25T14:05:35.783Z,34.77
2019-01-25T14:08:07.564Z,34.50
2019-01-25T14:10:38.928Z,34.10
2019-01-25T14:13:10.743Z,33.63
2019-01-25T14:15:43.156Z,34.80
2019-01-25T14:18:13.963Z,33.77
2019-01-25T14:20:45.060Z,34.47
2019-01-25T14:23:16.482Z,32.03
2019-01-25T14:25:47.504Z,33.00
2019-01-25T14:28:18.231Z,34.03
2019-01-25T14:30:49.289Z,33.53
2019-01-25T14:33:24.144Z,31.57
2019-01-25T14:35:55.806Z,32.00
2019-01-25T14:38:26.698Z,34.77
2019-01-25T14:40:57.498Z,35.40
2019-01-25T14:43:34.640Z,34.93
2019-01-25T14:46:05.719Z,33.77
2019-01-25T14:48:38.203Z,33.97
2019-01-25T14:51:09.416Z,33.87
2019-01-25T14:53:40.291Z,34.77
2019-01-25T14:56:12.134Z,33.63
2019-01-25T14:58:42.838Z,33.70
2019-01-25T15:01:16.149Z,32.73
2019-01-25T15:03:48.369Z,32.27
2019-01-25T15:06:19.709Z,29.47
2019-01-25T15:08:50.563Z,31.43
2019-01-25T15:11:23.270Z,30.70
2019-01-25T15:13:54.044Z,29.77
2019-01-25T15:16:24.752Z,30.40
2019-01-25T15:18:55.462Z,31.73
2019-01-25T15:21:27.559Z,32.27
2019-01-25T15:23:58.347Z,27.30
2019-01-25T15:26:31.217Z,26.70
2019-01-25T15:29:03.545Z,26.13
2019-01-25T15:31:34.303Z,26.30
2019-01-25T15:34:05.132Z,25.00
2019-01-25T15:36:35.911Z,26.40
2019-01-25T15:39:11.376Z,26.43
2019-01-25T15:41:42.274Z,27.97
2019-01-25T15:44:13.657Z,27.93
2019-01-25T15:46:44.404Z,33.50
2019-01-25T15:49:15.271Z,41.53
2019-01-25T15:51:46.304Z,36.57
2019-01-25T15:54:17.192Z,38.83
2019-01-25T15:56:48.020Z,42.03
2019-01-25T15:59:18.725Z,47.47
2019-01-25T16:01:49.884Z,55.70
2019-01-25T16:04:20.604Z,105.63
2019-01-25T16:06:51.499Z,94.10
2019-01-25T16:09:23.644Z,93.07
2019-01-25T16:11:54.567Z,189.37
2019-01-25T16:14:26.365Z,143.13
2019-01-25T16:16:57.407Z,171.70
2019-01-25T16:19:28.142Z,181.87
2019-01-25T16:21:59.113Z,128.50
2019-01-25T16:24:29.828Z,273.30
2019-01-25T16:27:00.724Z,164.83
2019-01-25T16:29:33.654Z,191.20
2019-01-25T16:32:04.392Z,164.87
2019-01-25T16:34:35.034Z,133.37
2019-01-25T16:37:05.842Z,88.67
2019-01-25T16:39:36.552Z,85.50
2019-01-25T16:42:07.283Z,67.43
2019-01-25T16:44:38.076Z,62.87
2019-01-25T16:47:10.347Z,48.63
2019-01-25T16:49:41.080Z,44.33
2019-01-25T16:52:12.662Z,43.23
2019-01-25T16:54:44.225Z,41.30
2019-01-25T16:57:14.979Z,36.50
2019-01-25T16:59:46.656Z,34.07
2019-01-25T17:02:17.444Z,34.23
2019-01-25T17:04:48.231Z,31.83
2019-01-25T17:07:18.987Z,32.67
2019-01-25T17:09:50.116Z,30.83
2019-01-25T17:12:21.754Z,31.90
2019-01-25T17:14:52.503Z,47.93
2019-01-25T17:17:24.638Z,90.50
2019-01-25T17:19:55.368Z,241.33
2019-01-25T17:22:26.100Z,220.70
2019-01-25T17:24:57.658Z,211.93
2019-01-25T17:27:28.444Z,278.87
2019-01-25T17:29:59.167Z,177.30
2019-01-25T17:32:29.841Z,171.33
2019-01-25T17:35:00.662Z,138.33
2019-01-25T17:37:31.331Z,153.23
2019-01-25T17:40:02.082Z,163.67
2019-01-25T17:42:32.865Z,210.73
2019-01-25T17:45:05.173Z,195.93
2019-01-25T17:47:36.018Z,177.87
2019-01-25T17:50:14.003Z,133.20
2019-01-25T17:52:44.866Z,127.80
2019-01-25T17:55:16.383Z,137.53
2019-01-25T17:57:47.577Z,103.83
2019-01-25T18:00:27.183Z,173.70
2019-01-25T18:02:59.657Z,124.27
2019-01-25T18:05:30.626Z,111.77
2019-01-25T18:08:01.489Z,100.27
2019-01-25T18:10:32.372Z,174.53
2019-01-25T18:13:03.215Z,92.20
2019-01-25T18:15:35.429Z,70.57
2019-01-25T18:18:07.122Z,60.37
2019-01-25T18:20:37.876Z,63.37
2019-01-25T18:23:09.055Z,72.83
2019-01-25T18:25:54.733Z,70.50
2019-01-25T18:28:33.028Z,62.07
2019-01-25T18:31:12.929Z,47.90
2019-01-25T18:33:45.436Z,53.73
2019-01-25T18:36:16.157Z,36.17
2019-01-25T18:38:46.884Z,36.93
2019-01-25T18:41:17.589Z,39.63
2019-01-25T18:43:48.249Z,33.83
2019-01-25T18:46:21.391Z,30.87
2019-01-25T18:48:53.415Z,29.63
2019-01-25T18:51:31.946Z,28.20
2019-01-25T18:54:01.523Z,26.87
2019-01-25T18:56:36.997Z,27.10
2019-01-25T18:59:07.927Z,28.13
2019-01-25T19:01:38.741Z,29.07
2019-01-25T19:04:09.912Z,28.77
2019-01-25T19:06:41.468Z,30.30
2019-01-25T19:09:12.882Z,28.30
2019-01-25T19:11:43.633Z,28.60
2019-01-25T19:14:14.500Z,28.30
2019-01-25T19:16:45.164Z,27.67
2019-01-25T19:19:16.224Z,28.53
2019-01-25T19:21:47.209Z,27.77
2019-01-25T19:24:21.257Z,29.03
2019-01-25T19:26:51.933Z,29.50
2019-01-25T19:29:22.820Z,28.47
2019-01-25T19:31:53.967Z,28.27
2019-01-25T19:34:25.237Z,27.07
2019-01-25T19:36:56.288Z,28.97
2019-01-25T19:39:27.473Z,28.73
2019-01-25T19:41:58.307Z,27.97
2019-01-25T19:44:29.377Z,29.30
2019-01-25T19:47:00.089Z,26.27
2019-01-25T19:49:31.845Z,26.60
2019-01-25T19:52:02.541Z,28.90
2019-01-25T19:54:33.367Z,28.00
2019-01-25T19:57:04.207Z,29.83
2019-01-25T19:59:34.885Z,29.03
2019-01-25T20:02:07.101Z,29.13
2019-01-25T20:04:37.762Z,28.90
2019-01-25T20:07:08.713Z,28.57
2019-01-25T20:09:40.353Z,28.30
2019-01-25T20:12:11.088Z,26.60
2019-01-25T20:14:41.809Z,29.37
2019-01-25T20:17:12.492Z,26.67
2019-01-25T20:19:43.367Z,28.80
2019-01-25T20:22:14.535Z,29.23
2019-01-25T20:24:45.735Z,28.47
2019-01-25T20:27:16.376Z,31.43
2019-01-25T20:29:47.349Z,29.93
2019-01-25T20:32:18.008Z,28.80
2019-01-25T20:34:48.848Z,30.20
2019-01-25T20:37:19.532Z,29.03
2019-01-25T20:39:50.379Z,28.63
2019-01-25T20:42:21.129Z,30.47
2019-01-25T20:44:51.812Z,30.10
2019-01-25T20:47:22.942Z,31.00
2019-01-25T20:49:53.719Z,29.13
2019-01-25T20:52:43.803Z,30.33
2019-01-25T20:55:16.966Z,29.87
2019-01-25T20:57:48.119Z,31.17
2019-01-25T21:00:23.580Z,30.67
2019-01-25T21:02:54.311Z,31.30
2019-01-25T21:05:25.046Z,30.60
2019-01-25T21:07:55.695Z,29.60
2019-01-25T21:10:28.037Z,31.33
2019-01-25T21:12:59.247Z,31.53
2019-01-25T21:15:35.063Z,34.07
2019-01-25T21:18:02.825Z,32.00
2019-01-25T21:20:46.142Z,30.73
2019-01-25T21:23:17.029Z,31.47
2019-01-25T21:25:47.814Z,32.27
2019-01-25T21:28:18.906Z,32.00
2019-01-25T21:30:49.897Z,33.50
2019-01-25T21:33:20.596Z,32.03
2019-01-25T21:35:51.262Z,32.60
2019-01-25T21:38:22.643Z,32.83
2019-01-25T21:40:53.314Z,33.43
2019-01-25T21:43:23.970Z,31.23
2019-01-25T21:45:54.686Z,31.73
2019-01-25T21:48:25.406Z,31.43
2019-01-25T21:50:56.166Z,31.13
2019-01-25T21:53:28.723Z,31.63
2019-01-25T21:56:02.486Z,32.13
2019-01-25T21:58:37.419Z,32.67
2019-01-25T22:01:09.072Z,30.90
2019-01-25T22:03:40.870Z,32.87
2019-01-25T22:06:11.548Z,32.83
2019-01-25T22:08:43.090Z,32.33
2019-01-25T22:11:13.882Z,32.13
2019-01-25T22:13:44.609Z,32.20
2019-01-25T22:16:15.796Z,32.03
2019-01-25T22:18:46.622Z,34.67
2019-01-25T22:21:17.522Z,31.23
2019-01-25T22:23:48.196Z,32.23
2019-01-25T22:26:19.394Z,33.10
2019-01-25T22:28:50.260Z,30.53
2019-01-25T22:31:21.703Z,32.13
2019-01-25T22:33:52.947Z,31.60
2019-01-25T22:36:23.664Z,33.17
2019-01-25T22:38:54.575Z,32.33
2019-01-25T22:41:27.117Z,32.40
2019-01-25T22:43:57.950Z,33.30
2019-01-25T22:46:28.771Z,33.03
2019-01-25T22:48:59.806Z,31.80
2019-01-25T22:51:30.899Z,34.33
2019-01-25T22:54:01.880Z,34.03
2019-01-25T22:56:32.757Z,33.80
2019-01-25T22:59:22.947Z,33.70
2019-01-25T23:01:54.166Z,33.83
2019-01-25T23:05:15.978Z,36.60
2019-01-25T23:07:47.914Z,35.57
2019-01-25T23:10:23.689Z,35.80
2019-01-25T23:12:54.352Z,37.17
2019-01-25T23:15:25.079Z,36.63
2019-01-25T23:17:55.804Z,37.27
2019-01-25T23:20:26.527Z,37.07
2019-01-25T23:22:57.251Z,37.87
2019-01-25T23:25:28.167Z,39.47
2019-01-25T23:27:58.817Z,39.20
2019-01-25T23:30:29.508Z,36.67
2019-01-25T23:33:00.180Z,38.03
2019-01-25T23:35:30.968Z,37.37
2019-01-25T23:38:01.695Z,39.37
2019-01-25T23:40:32.353Z,38.73
2019-01-25T23:43:03.018Z,39.50
2019-01-25T23:45:33.648Z,41.77
2019-01-25T23:48:04.440Z,40.13
2019-01-25T23:50:35.120Z,38.60
2019-01-25T23:53:06.778Z,40.07
2019-01-25T23:55:37.450Z,41.10
2019-01-25T23:58:08.121Z,40.20
